Time;durP1;ratioP1;P1;durP2;ratioP2;P2;SDS_P1;SDS_P2;PMS_P1;PMS_P2;Temp;Humidity;BMP_temperature;BMP_pressure;BME280_temperature;BME280_humidity;BME280_pressure;Samples;Min_cycle;Max_cycle;Signal;HPM_P1;HPM_P2
2023/09/09 00:01:57;;;;;;;;;;;21.80;99.90;;;;;;4982502;28;19910;-53
2023/09/09 00:04:22;;;;;;;;;;;21.70;99.90;;;;;;4993653;28;19999;-55
2023/09/09 00:06:48;;;;;;;;;;;21.70;99.90;;;;;;4976187;28;19909;-53
2023/09/09 00:09:16;;;;;;;;;;;21.70;99.90;;;;;;4994335;28;19964;-53
2023/09/09 00:11:42;;;;;;;;;;;21.70;99.90;;;;;;4997499;28;20289;-53
2023/09/09 00:14:07;;;;;;;;;;;21.60;99.90;;;;;;4996677;28;19910;-53
2023/09/09 00:16:36;;;;;;;;;;;21.60;99.90;;;;;;4996415;28;19945;-54
2023/09/09 00:19:02;;;;;;;;;;;21.60;99.90;;;;;;4997211;28;19960;-52
2023/09/09 00:21:27;;;;;;;;;;;21.60;99.90;;;;;;4996774;28;19917;-53
2023/09/09 00:23:53;;;;;;;;;;;21.50;99.90;;;;;;4997087;28;20268;-54
2023/09/09 00:26:18;;;;;;;;;;;21.50;99.90;;;;;;4997429;28;19909;-53
2023/09/09 00:28:44;;;;;;;;;;;21.50;99.90;;;;;;4997054;28;19910;-52
2023/09/09 00:31:09;;;;;;;;;;;21.50;99.90;;;;;;4997120;28;19909;-53
2023/09/09 00:33:53;;;;;;;;;;;21.50;99.90;;;;;;4997226;28;20366;-51
2023/09/09 00:36:19;;;;;;;;;;;21.40;99.90;;;;;;4996595;28;19951;-53
2023/09/09 00:38:45;;;;;;;;;;;21.40;99.90;;;;;;4997183;28;19965;-51
2023/09/09 00:41:11;;;;;;;;;;;21.40;99.90;;;;;;4996696;28;19967;-53
2023/09/09 00:43:38;;;;;;;;;;;21.30;99.90;;;;;;4996910;28;20298;-51
2023/09/09 00:46:05;;;;;;;;;;;21.30;99.90;;;;;;4996769;28;19964;-49
2023/09/09 00:48:30;;;;;;;;;;;21.30;99.90;;;;;;5016349;28;19913;-53
2023/09/09 00:50:56;;;;;;;;;;;21.30;99.90;;;;;;4994813;28;19916;-52
2023/09/09 00:53:22;;;;;;;;;;;21.30;99.90;;;;;;4995461;28;19996;-53
2023/09/09 00:55:47;;;;;;;;;;;21.20;99.90;;;;;;4995718;28;19917;-53
2023/09/09 00:58:13;;;;;;;;;;;21.20;99.90;;;;;;4994541;28;19960;-53
2023/09/09 01:00:39;;;;;;;;;;;21.20;99.90;;;;;;4995917;28;19909;-52
2023/09/09 01:03:05;;;;;;;;;;;21.20;99.90;;;;;;4995539;28;19936;-52
2023/09/09 01:05:31;;;;;;;;;;;21.10;99.90;;;;;;4975237;28;20259;-51
2023/09/09 01:07:57;;;;;;;;;;;21.10;99.90;;;;;;4994540;28;20364;-48
2023/09/09 01:10:23;;;;;;;;;;;21.10;99.90;;;;;;4996646;28;19910;-54
2023/09/09 01:12:50;;;;;;;;;;;21.10;99.90;;;;;;4995396;28;19913;-53
2023/09/09 01:15:15;;;;;;;;;;;21.00;99.90;;;;;;4996003;28;19917;-53
2023/09/09 01:17:41;;;;;;;;;;;21.00;99.90;;;;;;4996223;28;20379;-54
2023/09/09 01:20:10;;;;;;;;;;;21.00;99.90;;;;;;4995165;28;19918;-51
2023/09/09 01:22:36;;;;;;;;;;;21.00;99.90;;;;;;4977220;28;19910;-50
2023/09/09 01:25:04;;;;;;;;;;;21.00;99.90;;;;;;4994107;28;20421;-53
2023/09/09 01:27:30;;;;;;;;;;;21.00;99.90;;;;;;4976918;28;20339;-54
2023/09/09 01:29:55;;;;;;;;;;;20.90;99.90;;;;;;4994902;28;19987;-53
2023/09/09 01:32:21;;;;;;;;;;;20.90;99.90;;;;;;4995088;28;19910;-53
2023/09/09 01:34:46;;;;;;;;;;;20.90;99.90;;;;;;4994793;28;19910;-53
2023/09/09 01:37:12;;;;;;;;;;;20.90;99.90;;;;;;4994370;28;19957;-51
2023/09/09 01:39:37;;;;;;;;;;;20.90;99.90;;;;;;4978218;28;20271;-51
2023/09/09 01:42:03;;;;;;;;;;;20.90;99.90;;;;;;4994535;28;20298;-53
2023/09/09 01:44:28;;;;;;;;;;;20.80;99.90;;;;;;4995048;28;19909;-54
2023/09/09 01:46:54;;;;;;;;;;;20.80;99.90;;;;;;4994974;28;20310;-51
2023/09/09 01:49:20;;;;;;;;;;;20.80;99.90;;;;;;4994858;28;19945;-53
2023/09/09 01:51:45;;;;;;;;;;;20.80;99.90;;;;;;4995712;28;19910;-50
2023/09/09 01:54:11;;;;;;;;;;;20.80;99.90;;;;;;4995611;28;20362;-52
2023/09/09 01:56:36;;;;;;;;;;;20.70;99.90;;;;;;4995513;28;19960;-52
2023/09/09 01:59:02;;;;;;;;;;;20.70;99.90;;;;;;4994722;28;20008;-52
2023/09/09 02:01:27;;;;;;;;;;;20.70;99.90;;;;;;4995454;28;19910;-50
2023/09/09 02:03:53;;;;;;;;;;;20.60;99.90;;;;;;4994296;28;19909;-53
2023/09/09 02:06:19;;;;;;;;;;;20.70;99.90;;;;;;4995290;28;20362;-51
2023/09/09 02:08:44;;;;;;;;;;;20.60;99.90;;;;;;4995342;28;19917;-51
2023/09/09 02:11:10;;;;;;;;;;;20.60;99.90;;;;;;4994255;28;19913;-50
2023/09/09 02:13:35;;;;;;;;;;;20.60;99.90;;;;;;4994440;28;19909;-52
2023/09/09 02:16:04;;;;;;;;;;;20.50;99.90;;;;;;4995192;28;20362;-52
2023/09/09 02:18:30;;;;;;;;;;;20.50;99.90;;;;;;4995060;28;20318;-53
2023/09/09 02:20:56;;;;;;;;;;;20.50;99.90;;;;;;4993973;28;19916;-54
2023/09/09 02:23:22;;;;;;;;;;;20.50;99.90;;;;;;4995073;28;19995;-53
2023/09/09 02:25:47;;;;;;;;;;;20.40;99.90;;;;;;4995179;28;19953;-53
2023/09/09 02:28:13;;;;;;;;;;;20.40;99.90;;;;;;4993045;28;19910;-53
2023/09/09 02:30:38;;;;;;;;;;;20.40;99.90;;;;;;4992909;28;19917;-51
2023/09/09 02:33:04;;;;;;;;;;;20.30;99.90;;;;;;4994812;28;19996;-54
2023/09/09 02:35:30;;;;;;;;;;;20.30;99.90;;;;;;4994753;28;20535;-53
2023/09/09 02:37:55;;;;;;;;;;;20.30;99.90;;;;;;4994054;28;20378;-53
2023/09/09 02:40:21;;;;;;;;;;;20.20;99.90;;;;;;4977158;28;19914;-52
2023/09/09 02:42:47;;;;;;;;;;;20.20;99.90;;;;;;4993714;28;19953;-53
2023/09/09 02:45:12;;;;;;;;;;;20.10;99.90;;;;;;4994728;28;19918;-54
2023/09/09 02:47:38;;;;;;;;;;;20.10;99.90;;;;;;4994115;28;19910;-54
2023/09/09 02:50:04;;;;;;;;;;;20.00;99.90;;;;;;4994797;28;19916;-53
2023/09/09 02:52:29;;;;;;;;;;;20.10;99.90;;;;;;4992616;28;20004;-54
2023/09/09 02:54:55;;;;;;;;;;;20.00;99.90;;;;;;4993081;28;20005;-53
2023/09/09 02:57:20;;;;;;;;;;;20.00;99.90;;;;;;4993040;28;20008;-53
2023/09/09 02:59:46;;;;;;;;;;;20.00;99.90;;;;;;4993890;28;20408;-48
2023/09/09 03:02:11;;;;;;;;;;;19.90;99.90;;;;;;4992438;28;19910;-52
2023/09/09 03:04:37;;;;;;;;;;;19.90;99.90;;;;;;4993330;28;19917;-53
2023/09/09 03:07:02;;;;;;;;;;;19.90;99.90;;;;;;4994364;28;19914;-53
2023/09/09 03:09:29;;;;;;;;;;;19.90;99.90;;;;;;4994272;28;19909;-53
2023/09/09 03:11:56;;;;;;;;;;;19.80;99.90;;;;;;4992800;28;20004;-54
2023/09/09 03:14:22;;;;;;;;;;;19.80;99.90;;;;;;4994171;28;19909;-53
2023/09/09 03:16:47;;;;;;;;;;;19.80;99.90;;;;;;4993278;28;19909;-52
2023/09/09 03:19:13;;;;;;;;;;;19.70;99.90;;;;;;4992678;28;20294;-51
2023/09/09 03:21:39;;;;;;;;;;;19.70;99.90;;;;;;4992756;28;19910;-53
2023/09/09 03:24:04;;;;;;;;;;;19.70;99.90;;;;;;4994051;28;20338;-53
2023/09/09 03:26:31;;;;;;;;;;;19.70;99.90;;;;;;4975347;28;19917;-53
2023/09/09 03:28:57;;;;;;;;;;;19.70;99.90;;;;;;4993122;28;19910;-53
2023/09/09 03:31:23;;;;;;;;;;;19.70;99.90;;;;;;4993715;28;20358;-53
2023/09/09 03:33:48;;;;;;;;;;;19.70;99.90;;;;;;4993953;28;19961;-50
2023/09/09 03:36:14;;;;;;;;;;;19.70;99.90;;;;;;4993179;28;19995;-52
2023/09/09 03:38:39;;;;;;;;;;;19.70;99.90;;;;;;4993799;28;19913;-53
2023/09/09 03:41:06;;;;;;;;;;;19.60;99.90;;;;;;4992653;28;19933;-54
2023/09/09 03:43:32;;;;;;;;;;;19.60;99.90;;;;;;4994614;28;20358;-52
2023/09/09 03:45:58;;;;;;;;;;;19.60;99.90;;;;;;4999236;28;19916;-41
2023/09/09 03:48:24;;;;;;;;;;;19.60;99.90;;;;;;4981166;28;19996;-42
2023/09/09 03:50:49;;;;;;;;;;;19.60;99.90;;;;;;4963351;28;19910;-42
2023/09/09 03:53:15;;;;;;;;;;;19.60;99.90;;;;;;4980816;28;19910;-45
2023/09/09 03:55:40;;;;;;;;;;;19.60;99.90;;;;;;4980771;28;19913;-42
2023/09/09 03:58:06;;;;;;;;;;;19.50;99.90;;;;;;4997466;28;19913;-40
2023/09/09 04:00:31;;;;;;;;;;;19.60;99.90;;;;;;5000219;28;19913;-43
2023/09/09 04:02:57;;;;;;;;;;;19.60;99.90;;;;;;4999014;28;19944;-41
2023/09/09 04:05:23;;;;;;;;;;;19.60;99.90;;;;;;4998440;28;19910;-44
2023/09/09 04:07:48;;;;;;;;;;;19.50;99.90;;;;;;4998272;28;19910;-39
2023/09/09 04:10:14;;;;;;;;;;;19.60;99.90;;;;;;5000121;28;19910;-42
2023/09/09 04:12:39;;;;;;;;;;;19.60;99.90;;;;;;4997923;28;19936;-44
2023/09/09 04:15:06;;;;;;;;;;;19.60;99.90;;;;;;4999086;28;19909;-42
2023/09/09 04:17:31;;;;;;;;;;;19.50;99.90;;;;;;4998846;28;19910;-42
2023/09/09 04:19:57;;;;;;;;;;;19.50;99.90;;;;;;4998690;28;19910;-47
2023/09/09 04:22:22;;;;;;;;;;;19.50;99.90;;;;;;4998948;28;20363;-40
2023/09/09 04:24:48;;;;;;;;;;;19.50;99.90;;;;;;4999540;28;19910;-44
2023/09/09 04:27:13;;;;;;;;;;;19.50;99.90;;;;;;4997698;28;19980;-42
2023/09/09 04:29:39;;;;;;;;;;;19.50;99.90;;;;;;5000250;28;19910;-43
2023/09/09 04:32:05;;;;;;;;;;;19.40;99.90;;;;;;4999211;28;19916;-40
2023/09/09 04:34:30;;;;;;;;;;;19.40;99.90;;;;;;4999849;28;19921;-43
2023/09/09 04:36:56;;;;;;;;;;;19.40;99.90;;;;;;4999690;28;20000;-39
2023/09/09 04:39:21;;;;;;;;;;;19.40;99.90;;;;;;4998724;28;19918;-41
2023/09/09 04:41:47;;;;;;;;;;;19.40;99.90;;;;;;4998587;28;19918;-46
2023/09/09 04:44:12;;;;;;;;;;;19.40;99.90;;;;;;4999860;28;19910;-42
2023/09/09 04:46:38;;;;;;;;;;;19.40;99.90;;;;;;5000095;28;19910;-45
2023/09/09 04:49:04;;;;;;;;;;;19.30;99.90;;;;;;4998633;28;19909;-40
2023/09/09 04:51:29;;;;;;;;;;;19.40;99.90;;;;;;5000008;28;19910;-39
2023/09/09 04:53:55;;;;;;;;;;;19.40;99.90;;;;;;4999572;28;19910;-40
2023/09/09 04:56:21;;;;;;;;;;;19.30;99.90;;;;;;4995333;28;19988;-41
2023/09/09 04:58:46;;;;;;;;;;;19.30;99.90;;;;;;4995834;28;19914;-43
2023/09/09 05:01:12;;;;;;;;;;;19.20;99.90;;;;;;4996543;28;19910;-41
2023/09/09 05:03:37;;;;;;;;;;;19.30;99.90;;;;;;4996611;28;20060;-44
2023/09/09 05:06:03;;;;;;;;;;;19.20;99.90;;;;;;4995517;28;19972;-41
2023/09/09 05:08:28;;;;;;;;;;;19.20;99.90;;;;;;4996430;28;20370;-40
2023/09/09 05:10:54;;;;;;;;;;;19.20;99.90;;;;;;4996518;28;19917;-40
2023/09/09 05:13:20;;;;;;;;;;;19.20;99.90;;;;;;4995566;28;19913;-47
2023/09/09 05:15:45;;;;;;;;;;;19.20;99.90;;;;;;4978795;28;19916;-44
2023/09/09 05:18:11;;;;;;;;;;;19.20;99.90;;;;;;4995141;28;19913;-39
2023/09/09 05:20:36;;;;;;;;;;;19.20;99.90;;;;;;4996457;28;20430;-44
2023/09/09 05:23:02;;;;;;;;;;;19.30;99.90;;;;;;4995520;28;19913;-43
2023/09/09 05:25:27;;;;;;;;;;;19.30;99.90;;;;;;4993964;28;19913;-42
2023/09/09 05:27:53;;;;;;;;;;;19.30;99.90;;;;;;4976851;28;20367;-41
2023/09/09 05:30:19;;;;;;;;;;;19.30;99.90;;;;;;4995934;28;20278;-52
2023/09/09 05:32:44;;;;;;;;;;;19.30;99.90;;;;;;4995803;28;19949;-53
2023/09/09 05:35:10;;;;;;;;;;;19.40;99.90;;;;;;4978138;28;19913;-50
2023/09/09 05:37:36;;;;;;;;;;;19.30;99.90;;;;;;4995596;28;19910;-52
2023/09/09 05:40:02;;;;;;;;;;;19.30;99.90;;;;;;5013300;28;20398;-53
2023/09/09 05:42:28;;;;;;;;;;;19.20;99.90;;;;;;4992613;28;20367;-53
2023/09/09 05:44:54;;;;;;;;;;;19.20;99.90;;;;;;4994759;28;19916;-53
2023/09/09 05:47:19;;;;;;;;;;;19.20;99.90;;;;;;4980517;28;20385;-53
2023/09/09 05:49:45;;;;;;;;;;;19.10;99.90;;;;;;4981218;28;19910;-53
2023/09/09 05:52:12;;;;;;;;;;;19.10;99.90;;;;;;4995381;28;20385;-52
2023/09/09 05:54:38;;;;;;;;;;;19.10;99.90;;;;;;4995882;28;19906;-53
2023/09/09 05:57:04;;;;;;;;;;;19.00;99.90;;;;;;4995535;28;19905;-52
2023/09/09 05:59:29;;;;;;;;;;;19.00;99.90;;;;;;4993924;28;19928;-54
2023/09/09 06:01:55;;;;;;;;;;;19.00;99.90;;;;;;4985743;28;19932;-54
2023/09/09 06:04:20;;;;;;;;;;;19.00;99.90;;;;;;4995333;28;20327;-53
2023/09/09 06:06:46;;;;;;;;;;;19.10;99.90;;;;;;4981551;28;19952;-49
2023/09/09 06:09:12;;;;;;;;;;;19.10;99.90;;;;;;4992180;28;19909;-52
2023/09/09 06:11:37;;;;;;;;;;;19.10;99.90;;;;;;4992602;28;19916;-48
2023/09/09 06:14:03;;;;;;;;;;;19.20;99.90;;;;;;4975862;28;19960;-51
2023/09/09 06:16:28;;;;;;;;;;;19.30;99.90;;;;;;4991941;28;19910;-51
2023/09/09 06:18:54;;;;;;;;;;;19.30;99.90;;;;;;4994217;28;20366;-53
2023/09/09 06:21:20;;;;;;;;;;;19.30;99.90;;;;;;4995078;28;19909;-51
2023/09/09 06:23:46;;;;;;;;;;;19.30;99.90;;;;;;4994263;28;19921;-51
2023/09/09 06:26:11;;;;;;;;;;;19.20;99.90;;;;;;4994857;28;19905;-53
2023/09/09 06:28:37;;;;;;;;;;;19.20;99.90;;;;;;4993698;28;19910;-54
2023/09/09 06:31:02;;;;;;;;;;;19.20;99.90;;;;;;4987674;28;20077;-51
2023/09/09 06:33:28;;;;;;;;;;;19.20;99.90;;;;;;4981903;28;19916;-53
2023/09/09 06:35:55;;;;;;;;;;;19.20;99.90;;;;;;4989327;28;19926;-54
2023/09/09 06:38:21;;;;;;;;;;;19.20;99.90;;;;;;4984362;28;20263;-50
2023/09/09 06:40:47;;;;;;;;;;;19.20;99.90;;;;;;4979681;28;19916;-53
2023/09/09 06:43:13;;;;;;;;;;;19.30;99.90;;;;;;4992025;28;19910;-52
2023/09/09 06:45:39;;;;;;;;;;;19.40;99.90;;;;;;4989676;28;19920;-50
2023/09/09 06:48:04;;;;;;;;;;;19.40;99.90;;;;;;4993185;28;20341;-52
2023/09/09 06:50:30;;;;;;;;;;;19.40;99.90;;;;;;4991847;28;20345;-53
2023/09/09 06:52:55;;;;;;;;;;;19.40;99.90;;;;;;4994522;28;19909;-53
2023/09/09 06:55:21;;;;;;;;;;;19.50;99.90;;;;;;4994561;28;20350;-51
2023/09/09 06:57:46;;;;;;;;;;;19.40;99.90;;;;;;4994318;28;19935;-52
2023/09/09 07:00:12;;;;;;;;;;;19.50;99.90;;;;;;4994350;28;19937;-54
2023/09/09 07:02:39;;;;;;;;;;;19.60;99.90;;;;;;4994695;28;19923;-52
2023/09/09 07:05:05;;;;;;;;;;;19.60;99.90;;;;;;4994525;28;20259;-53
2023/09/09 07:07:30;;;;;;;;;;;19.70;99.90;;;;;;4994254;28;19925;-52
2023/09/09 07:09:56;;;;;;;;;;;19.80;99.90;;;;;;4994235;28;20396;-51
2023/09/09 07:12:21;;;;;;;;;;;19.70;99.90;;;;;;4994196;28;19996;-54
2023/09/09 07:14:47;;;;;;;;;;;19.70;99.90;;;;;;4994108;28;19905;-52
2023/09/09 07:17:12;;;;;;;;;;;19.80;99.90;;;;;;4994168;28;20347;-52
2023/09/09 07:19:38;;;;;;;;;;;19.80;99.90;;;;;;4993384;28;20355;-53
2023/09/09 07:22:04;;;;;;;;;;;19.80;99.90;;;;;;4994073;28;20378;-53
2023/09/09 07:24:30;;;;;;;;;;;19.80;99.90;;;;;;4993954;28;20337;-53
2023/09/09 07:26:57;;;;;;;;;;;19.80;99.90;;;;;;4993941;28;20008;-58
2023/09/09 07:29:22;;;;;;;;;;;19.80;99.90;;;;;;4994015;28;19952;-53
2023/09/09 07:31:48;;;;;;;;;;;19.80;99.90;;;;;;4992909;28;20243;-52
2023/09/09 07:34:13;;;;;;;;;;;19.80;99.90;;;;;;4993620;28;19936;-53
2023/09/09 07:36:39;;;;;;;;;;;19.90;99.90;;;;;;4993989;28;19905;-52
2023/09/09 07:39:04;;;;;;;;;;;19.90;99.90;;;;;;4993850;28;19913;-52
2023/09/09 07:41:30;;;;;;;;;;;19.90;99.90;;;;;;4993037;28;19918;-54
2023/09/09 07:43:55;;;;;;;;;;;20.00;99.90;;;;;;4993716;28;19917;-53
2023/09/09 07:46:21;;;;;;;;;;;20.10;99.90;;;;;;4993721;28;19960;-53
2023/09/09 07:48:46;;;;;;;;;;;20.30;99.90;;;;;;4993833;28;19910;-53
2023/09/09 07:51:14;;;;;;;;;;;20.40;99.90;;;;;;4992692;28;20365;-53
2023/09/09 07:53:39;;;;;;;;;;;20.60;99.90;;;;;;4993721;28;19910;-53
2023/09/09 07:56:05;;;;;;;;;;;20.70;99.90;;;;;;4993532;28;20005;-53
2023/09/09 07:58:30;;;;;;;;;;;20.90;99.90;;;;;;4993886;28;19928;-53
2023/09/09 08:01:05;;;;;;;;;;;21.10;99.90;;;;;;4975669;28;19917;-54
2023/09/09 08:03:31;;;;;;;;;;;21.30;99.90;;;;;;4993588;28;20321;-54
2023/09/09 08:06:02;;;;;;;;;;;21.40;99.90;;;;;;4976196;28;19906;-53
2023/09/09 08:08:28;;;;;;;;;;;21.60;99.90;;;;;;4992397;28;19933;-54
2023/09/09 08:10:53;;;;;;;;;;;21.80;99.90;;;;;;4993494;28;20329;-54
2023/09/09 08:13:19;;;;;;;;;;;21.80;99.90;;;;;;4993356;28;19912;-50
2023/09/09 08:15:44;;;;;;;;;;;21.90;99.90;;;;;;4993391;28;19906;-53
2023/09/09 08:18:11;;;;;;;;;;;21.90;99.90;;;;;;4993230;28;19917;-54
2023/09/09 08:20:36;;;;;;;;;;;22.10;99.90;;;;;;4976072;28;19905;-54
2023/09/09 08:23:02;;;;;;;;;;;22.20;99.90;;;;;;4993309;28;19956;-58
2023/09/09 08:25:32;;;;;;;;;;;22.30;99.90;;;;;;4993339;28;19906;-51
2023/09/09 08:28:03;;;;;;;;;;;22.40;99.90;;;;;;4993552;28;19910;-53
2023/09/09 08:30:29;;;;;;;;;;;22.50;99.90;;;;;;4994813;28;20385;-54
2023/09/09 08:32:55;;;;;;;;;;;22.60;99.90;;;;;;4997101;28;20405;-52
2023/09/09 08:35:22;;;;;;;;;;;22.80;99.90;;;;;;4997001;28;20366;-52
2023/09/09 08:37:47;;;;;;;;;;;22.90;99.90;;;;;;4996914;28;20294;-54
2023/09/09 08:40:13;;;;;;;;;;;23.10;99.90;;;;;;4996900;28;19906;-56
2023/09/09 08:42:51;;;;;;;;;;;23.10;99.90;;;;;;4996693;28;19914;-53
2023/09/09 08:45:33;;;;;;;;;;;23.30;99.90;;;;;;4997066;28;19913;-54
2023/09/09 08:47:58;;;;;;;;;;;23.40;99.90;;;;;;4996825;28;19906;-54
2023/09/09 08:50:24;;;;;;;;;;;23.50;99.90;;;;;;4997018;28;20377;-53
2023/09/09 08:52:52;;;;;;;;;;;23.70;99.90;;;;;;4996661;28;19960;-54
2023/09/09 08:55:19;;;;;;;;;;;23.90;99.90;;;;;;4996917;28;19906;-53
2023/09/09 08:57:44;;;;;;;;;;;24.00;99.90;;;;;;4996550;28;19905;-53
2023/09/09 09:00:11;;;;;;;;;;;24.00;99.90;;;;;;4996667;28;20325;-54
2023/09/09 09:02:37;;;;;;;;;;;24.10;99.90;;;;;;4996648;28;19956;-54
2023/09/09 09:05:03;;;;;;;;;;;24.20;99.90;;;;;;5016090;28;19905;-54
2023/09/09 09:07:29;;;;;;;;;;;24.30;99.90;;;;;;5016369;28;20383;-54
2023/09/09 09:09:57;;;;;;;;;;;24.50;99.90;;;;;;5016291;28;20381;-53
2023/09/09 09:12:23;;;;;;;;;;;24.60;99.90;;;;;;5015987;28;19905;-51
2023/09/09 09:14:49;;;;;;;;;;;24.70;99.90;;;;;;5015988;28;19909;-54
2023/09/09 09:17:16;;;;;;;;;;;24.80;99.90;;;;;;5016232;28;20467;-54
2023/09/09 09:19:41;;;;;;;;;;;24.90;99.90;;;;;;5015823;28;19948;-54
2023/09/09 09:22:07;;;;;;;;;;;25.00;99.90;;;;;;5015776;28;20015;-55
2023/09/09 09:24:40;;;;;;;;;;;25.10;99.90;;;;;;5015899;28;20361;-54
2023/09/09 09:27:08;;;;;;;;;;;25.40;99.90;;;;;;5015720;28;19992;-53
2023/09/09 09:29:38;;;;;;;;;;;25.50;99.90;;;;;;5015574;28;20273;-54
2023/09/09 09:32:04;;;;;;;;;;;25.80;99.90;;;;;;5015869;28;19971;-54
2023/09/09 09:34:33;;;;;;;;;;;25.80;99.90;;;;;;5015658;28;19910;-55
2023/09/09 09:37:02;;;;;;;;;;;25.90;99.90;;;;;;5015554;28;19905;-54
2023/09/09 09:39:33;;;;;;;;;;;25.90;99.90;;;;;;5015372;28;19945;-55
2023/09/09 09:41:59;;;;;;;;;;;25.90;99.90;;;;;;5014660;28;19913;-54
2023/09/09 09:44:24;;;;;;;;;;;26.00;99.90;;;;;;5015436;28;19910;-55
2023/09/09 09:47:06;;;;;;;;;;;26.00;99.90;;;;;;5015624;28;20376;-54
2023/09/09 09:49:36;;;;;;;;;;;26.00;99.90;;;;;;5015339;28;20349;-54
2023/09/09 09:52:02;;;;;;;;;;;26.20;99.90;;;;;;5015167;28;19913;-55
2023/09/09 09:54:28;;;;;;;;;;;26.30;99.90;;;;;;5015349;28;19916;-55
2023/09/09 09:56:57;;;;;;;;;;;26.40;99.90;;;;;;4997625;28;19999;-54
2023/09/09 09:59:23;;;;;;;;;;;26.40;99.90;;;;;;5015075;28;19956;-53
2023/09/09 10:01:48;;;;;;;;;;;26.60;99.90;;;;;;5015067;28;20405;-55
2023/09/09 10:04:16;;;;;;;;;;;26.70;99.90;;;;;;5014873;28;19932;-55
2023/09/09 10:06:45;;;;;;;;;;;26.80;99.90;;;;;;5014971;28;19910;-53
2023/09/09 10:09:13;;;;;;;;;;;26.90;99.90;;;;;;5014928;28;20275;-54
2023/09/09 10:11:42;;;;;;;;;;;26.90;99.90;;;;;;5014795;28;19909;-55
2023/09/09 10:14:15;;;;;;;;;;;26.90;99.90;;;;;;5014793;28;20397;-54
2023/09/09 10:16:41;;;;;;;;;;;26.90;99.90;;;;;;5014879;28;20016;-55
2023/09/09 10:19:08;;;;;;;;;;;26.80;99.90;;;;;;5015033;28;19914;-55
2023/09/09 10:21:34;;;;;;;;;;;26.90;99.90;;;;;;5014668;28;19910;-55
2023/09/09 10:24:01;;;;;;;;;;;27.10;99.90;;;;;;5014486;28;19920;-55
2023/09/09 10:26:27;;;;;;;;;;;27.30;99.90;;;;;;5014736;28;19909;-55
2023/09/09 10:28:53;;;;;;;;;;;27.40;99.90;;;;;;5014429;28;19909;-52
2023/09/09 10:31:19;;;;;;;;;;;27.30;99.90;;;;;;5014449;28;19947;-53
2023/09/09 10:33:47;;;;;;;;;;;27.20;99.90;;;;;;5014365;28;20363;-52
2023/09/09 10:36:17;;;;;;;;;;;27.20;99.90;;;;;;5014317;28;19909;-54
2023/09/09 10:38:42;;;;;;;;;;;27.20;99.90;;;;;;5014192;28;19919;-60
2023/09/09 10:41:09;;;;;;;;;;;27.10;99.90;;;;;;5014311;28;20360;-52
2023/09/09 10:43:34;;;;;;;;;;;27.10;99.90;;;;;;5014337;28;19921;-55
2023/09/09 10:46:00;;;;;;;;;;;27.10;99.90;;;;;;5014304;28;20354;-53
2023/09/09 10:48:27;;;;;;;;;;;27.20;99.90;;;;;;5014291;28;19910;-55
2023/09/09 10:50:53;;;;;;;;;;;27.40;99.90;;;;;;5014447;28;20060;-54
2023/09/09 10:53:23;;;;;;;;;;;27.40;99.90;;;;;;5013561;28;19976;-55
2023/09/09 10:55:51;;;;;;;;;;;27.60;99.90;;;;;;5014097;28;20000;-55
2023/09/09 10:58:17;;;;;;;;;;;27.60;99.90;;;;;;4996304;28;19921;-53
2023/09/09 11:00:44;;;;;;;;;;;27.70;99.90;;;;;;5014056;28;19952;-53
2023/09/09 11:03:10;;;;;;;;;;;27.80;99.90;;;;;;5013868;28;19943;-55
2023/09/09 11:05:54;;;;;;;;;;;27.90;99.90;;;;;;5013923;28;20286;-54
2023/09/09 11:08:30;;;;;;;;;;;27.90;99.90;;;;;;5013879;28;20387;-52
2023/09/09 11:11:14;;;;;;;;;;;27.90;99.90;;;;;;5014147;28;19909;-55
2023/09/09 11:13:41;;;;;;;;;;;28.00;99.90;;;;;;5013736;28;20314;-55
2023/09/09 11:16:06;;;;;;;;;;;27.90;99.90;;;;;;5013750;28;20270;-55
2023/09/09 11:18:33;;;;;;;;;;;27.90;99.90;;;;;;5013967;28;19913;-55
2023/09/09 11:20:59;;;;;;;;;;;27.90;99.90;;;;;;5013974;28;20416;-53
2023/09/09 11:23:26;;;;;;;;;;;28.00;99.90;;;;;;5008840;28;19917;-55
2023/09/09 11:25:53;;;;;;;;;;;27.90;99.90;;;;;;4993115;28;19925;-54
2023/09/09 11:28:19;;;;;;;;;;;27.80;99.90;;;;;;4994022;28;19910;-55
2023/09/09 11:30:44;;;;;;;;;;;27.90;99.90;;;;;;4993959;28;19936;-55
2023/09/09 11:33:19;;;;;;;;;;;27.80;99.90;;;;;;4993983;28;20333;-55
2023/09/09 11:35:44;;;;;;;;;;;27.90;99.90;;;;;;4993955;28;19945;-54
2023/09/09 11:38:12;;;;;;;;;;;28.00;99.90;;;;;;4993853;28;19961;-54
2023/09/09 11:40:38;;;;;;;;;;;28.10;99.90;;;;;;4993848;28;19910;-52
2023/09/09 11:43:04;;;;;;;;;;;28.20;99.90;;;;;;4993681;28;19920;-55
2023/09/09 11:45:31;;;;;;;;;;;28.30;99.90;;;;;;4994055;28;19983;-53
2023/09/09 11:47:57;;;;;;;;;;;28.30;99.90;;;;;;4993827;28;19910;-55
2023/09/09 11:50:22;;;;;;;;;;;28.40;99.90;;;;;;4993767;28;20056;-54
2023/09/09 11:52:48;;;;;;;;;;;28.60;99.90;;;;;;4993782;28;19992;-54
2023/09/09 11:55:17;;;;;;;;;;;28.70;99.90;;;;;;4993788;28;20433;-55
2023/09/09 11:57:55;;;;;;;;;;;28.70;99.90;;;;;;4993904;28;20417;-55
2023/09/09 12:00:22;;;;;;;;;;;28.80;99.90;;;;;;4993752;28;19995;-54
2023/09/09 12:02:48;;;;;;;;;;;28.70;99.90;;;;;;4995283;28;19909;-54
2023/09/09 12:05:14;;;;;;;;;;;28.80;99.90;;;;;;5014419;28;19909;-40
2023/09/09 12:07:42;;;;;;;;;;;28.90;99.90;;;;;;5017459;28;20328;-41
2023/09/09 12:10:12;;;;;;;;;;;29.10;99.90;;;;;;5017165;28;20389;-43
2023/09/09 12:12:40;;;;;;;;;;;29.30;99.90;;;;;;5017373;28;19956;-44
2023/09/09 12:15:06;;;;;;;;;;;29.50;99.90;;;;;;5017018;28;19909;-46
2023/09/09 12:17:31;;;;;;;;;;;29.60;99.90;;;;;;5017305;28;19910;-43
2023/09/09 12:19:57;;;;;;;;;;;29.80;99.90;;;;;;5016764;28;19996;-41
2023/09/09 12:22:29;;;;;;;;;;;29.90;99.90;;;;;;5016901;28;19913;-44
2023/09/09 12:24:55;;;;;;;;;;;30.00;99.90;;;;;;5016823;28;19909;-42
2023/09/09 12:27:20;;;;;;;;;;;29.80;99.90;;;;;;5016874;28;19909;-41
2023/09/09 12:29:46;;;;;;;;;;;29.70;99.90;;;;;;5016777;28;19936;-41
2023/09/09 12:32:11;;;;;;;;;;;29.80;99.90;;;;;;5016692;28;19959;-48
2023/09/09 12:34:37;;;;;;;;;;;29.60;99.90;;;;;;5016680;28;19935;-44
2023/09/09 12:37:02;;;;;;;;;;;29.70;99.90;;;;;;5016679;28;19933;-44
2023/09/09 12:39:29;;;;;;;;;;;29.70;99.90;;;;;;5016798;28;20377;-47
2023/09/09 12:42:04;;;;;;;;;;;29.60;99.90;;;;;;4998669;28;19943;-41
2023/09/09 12:44:46;;;;;;;;;;;29.50;99.90;;;;;;5016667;28;20378;-43
2023/09/09 12:47:12;;;;;;;;;;;29.40;99.90;;;;;;5016641;28;19937;-42
2023/09/09 12:49:37;;;;;;;;;;;29.50;99.90;;;;;;5016606;28;19991;-45
2023/09/09 12:52:03;;;;;;;;;;;29.70;99.90;;;;;;5016142;28;19909;-43
2023/09/09 12:54:28;;;;;;;;;;;29.80;99.90;;;;;;5016610;28;19909;-45
2023/09/09 12:56:54;;;;;;;;;;;30.00;99.90;;;;;;5016467;28;20013;-44
2023/09/09 12:59:19;;;;;;;;;;;30.10;99.90;;;;;;5016398;28;20285;-46
2023/09/09 13:01:45;;;;;;;;;;;30.00;99.90;;;;;;5016538;28;19913;-43
2023/09/09 13:04:10;;;;;;;;;;;29.90;99.90;;;;;;5016301;28;19910;-44
2023/09/09 13:06:36;;;;;;;;;;;29.90;99.90;;;;;;5016083;28;19956;-41
2023/09/09 13:09:02;;;;;;;;;;;29.90;99.90;;;;;;5016069;28;19960;-43
2023/09/09 13:11:27;;;;;;;;;;;29.90;99.90;;;;;;5016210;28;19909;-46
2023/09/09 13:13:53;;;;;;;;;;;29.80;99.90;;;;;;5015969;28;19917;-43
2023/09/09 13:16:18;;;;;;;;;;;29.70;99.90;;;;;;5015583;28;20318;-42
2023/09/09 13:18:44;;;;;;;;;;;29.80;99.90;;;;;;5015201;28;19913;-41
2023/09/09 13:21:09;;;;;;;;;;;29.80;99.90;;;;;;5015859;28;19920;-43
2023/09/09 13:23:35;;;;;;;;;;;29.90;99.90;;;;;;5015722;28;20399;-43
2023/09/09 13:26:01;;;;;;;;;;;30.00;99.90;;;;;;5015647;28;19910;-45
2023/09/09 13:28:26;;;;;;;;;;;30.10;99.90;;;;;;5015734;28;20305;-45
2023/09/09 13:30:52;;;;;;;;;;;30.00;99.90;;;;;;5015695;28;19910;-44
2023/09/09 13:33:18;;;;;;;;;;;29.80;99.90;;;;;;5015805;28;19936;-50
2023/09/09 13:35:44;;;;;;;;;;;29.80;99.90;;;;;;5015576;28;19910;-42
2023/09/09 13:38:09;;;;;;;;;;;29.70;99.90;;;;;;5015432;28;19939;-42
2023/09/09 13:40:35;;;;;;;;;;;29.80;99.90;;;;;;5015455;28;19909;-56
2023/09/09 13:43:00;;;;;;;;;;;29.80;99.90;;;;;;5015260;28;19940;-52
2023/09/09 13:45:26;;;;;;;;;;;29.80;99.90;;;;;;5015618;28;19909;-55
2023/09/09 13:47:51;;;;;;;;;;;29.70;99.90;;;;;;5015384;28;19916;-55
2023/09/09 13:50:17;;;;;;;;;;;29.60;99.90;;;;;;5015325;28;19905;-56
2023/09/09 13:52:42;;;;;;;;;;;29.60;99.90;;;;;;5015255;28;19905;-56
2023/09/09 13:55:08;;;;;;;;;;;29.70;99.90;;;;;;5015195;28;20321;-56
2023/09/09 13:57:34;;;;;;;;;;;30.00;99.90;;;;;;5015099;28;19905;-56
2023/09/09 13:59:59;;;;;;;;;;;30.20;99.90;;;;;;5014926;28;20503;-56
2023/09/09 14:02:25;;;;;;;;;;;30.20;99.90;;;;;;5015307;28;19927;-55
2023/09/09 14:04:51;;;;;;;;;;;30.20;99.90;;;;;;5015094;28;19912;-54
2023/09/09 14:07:16;;;;;;;;;;;30.00;99.90;;;;;;5015737;28;19983;-51
2023/09/09 14:09:42;;;;;;;;;;;29.90;99.90;;;;;;5014938;28;19909;-53
2023/09/09 14:12:07;;;;;;;;;;;29.80;99.90;;;;;;5014927;28;20261;-54